Custom file does not exist C:\wdisplay\webfiles\testtags.txt Estación Meteorológica - Informe de Metar cercanos
Meteopozuelo

Informes METAR próximos a MeteoPozuelo

 

LEVS - Cuatro Vientos (Madrid) España
Actualización: 01/07/2022 00:00
Despejado
Despejado
 Viento del N
Viento: N 7 km/h
Temperatura: 22°C
Punto de Rocío: 5°C
Humedad: 33%
Barómetro: 1016 hPa
Resumen: Despejado
Visibility: greater than 10 km
2022/06/30 22:00 LEVS 302200Z AUTO 35004KT 300V030 CAVOK 22/05 Q1016
LEGT - Getafe (Madrid ) España
Actualización: 30/06/2022 20:00
NOT Current
Despejado
Despejado
 Viento del NO
Viento: NO 19 km/h
Temperatura: 29°C
Punto de Rocío: 5°C
Humedad: 22%
Barómetro: 1013 hPa
Resumen: Despejado
Visibility: greater than 10 km
2022/06/30 18:00 LEGT 301800Z 31010KT 280V340 CAVOK 29/05 Q1013
 
LEMD - Barajas (Madrid) España
Actualización: 01/07/2022 00:00
Despejado
Despejado
 Viento del NE
Viento: NE 6 km/h
Temperatura: 22°C
Punto de Rocío: 5°C
Humedad: 33%
Barómetro: 1016 hPa
Resumen: Despejado
Visibility: greater than 10 km
2022/06/30 22:00 LEMD 302200Z 05003KT 350V120 CAVOK 22/05 Q1016 NOSIG
LETO - Torrejon de Ardoz (Madrid) España
Actualización: 01/07/2022 00:00
Despejado
Despejado
 Viento del NNE
Viento: NNE 20 km/h
Temperatura: 22°C
Punto de Rocío: 6°C
Humedad: 36%
Barómetro: 1016 hPa
Resumen: Despejado
Visibility: greater than 10 km
2022/06/30 22:00 LETO 302200Z 03011KT CAVOK 22/06 Q1016 NOSIG
 
LECV - Colmenar Viejo (Madrid)
Actualización: 30/06/2022 20:00
NOT Current
Few Clouds
Few Clouds
 Viento del ONO
Viento: ONO 15 km/h, Racha: 35 km/h
Temperatura: 24°C
Punto de Rocío: 3°C
Humedad: 25%
Barómetro: 1015 hPa
Clouds: Few Clouds
Visibility: 10 km
Cloud details: Few Clouds 1829 m
2022/06/30 18:00 LECV 301800Z 30008G19KT 230V010 9999 FEW060 24/03 Q1015